Time;durP1;ratioP1;P1;durP2;ratioP2;P2;SDS_P1;SDS_P2;PMS_P1;PMS_P2;Temp;Humidity;BMP_temperature;BMP_pressure;BME280_temperature;BME280_humidity;BME280_pressure;Samples;Min_cycle;Max_cycle;Signal;HPM_P1;HPM_P2
2023/06/13 00:01:11;;;;;;;24.00;13.60;;;;;;;16.88;100.00;97137.19;10245949;28;20137;-49
2023/06/13 00:06:13;;;;;;;21.50;13.77;;;;;;;16.91;100.00;97129.22;10246831;28;20121;-52
2023/06/13 00:11:12;;;;;;;21.88;15.43;;;;;;;16.98;100.00;97139.47;10246487;28;20129;-50
2023/06/13 00:16:12;;;;;;;21.70;15.23;;;;;;;17.02;100.00;97125.34;10245331;28;20030;-51
2023/06/13 00:21:11;;;;;;;21.35;14.35;;;;;;;16.78;100.00;97096.47;10245635;28;20142;-50
2023/06/13 00:26:10;;;;;;;20.92;15.30;;;;;;;16.98;100.00;97113.25;10246238;28;20077;-48
2023/06/13 00:31:09;;;;;;;22.20;15.55;;;;;;;17.00;100.00;97125.41;10245955;28;20044;-54
2023/06/13 00:36:08;;;;;;;27.00;16.90;;;;;;;16.92;100.00;97102.09;10243373;28;20054;-50
2023/06/13 00:41:07;;;;;;;27.30;17.05;;;;;;;17.00;100.00;97119.31;10244508;28;20052;-50
2023/06/13 00:46:06;;;;;;;24.45;17.73;;;;;;;16.82;100.00;97082.41;10246776;28;20068;-51
2023/06/13 00:51:06;;;;;;;26.80;17.90;;;;;;;16.98;100.00;97114.13;10247157;28;20081;-50
2023/06/13 00:56:07;;;;;;;26.92;18.13;;;;;;;16.73;100.00;97077.47;10248050;28;20062;-51
2023/06/13 01:01:08;;;;;;;32.10;19.75;;;;;;;16.91;100.00;97105.66;10248939;28;20596;-48
2023/06/13 01:06:10;;;;;;;29.70;20.83;;;;;;;16.96;100.00;97113.34;10248842;28;20567;-50
2023/06/13 01:11:28;;;;;;;32.63;21.13;;;;;;;16.94;100.00;97104.69;10245847;28;20378;-49
2023/06/13 01:16:54;;;;;;;28.85;19.42;;;;;;;16.93;100.00;97102.94;10246611;28;20057;-50
2023/06/13 01:21:56;;;;;;;29.05;20.75;;;;;;;16.90;100.00;97103.91;10247920;28;20485;-50
2023/06/13 01:27:00;;;;;;;30.90;21.02;;;;;;;16.97;100.00;97111.56;10245880;28;20070;-51
2023/06/13 01:31:59;;;;;;;31.77;20.50;;;;;;;16.95;100.00;97103.75;10247037;28;20065;-50
2023/06/13 01:36:59;;;;;;;30.83;21.73;;;;;;;16.89;100.00;97102.22;10246286;28;20065;-49
2023/06/13 01:41:57;;;;;;;36.70;23.42;;;;;;;16.88;100.00;97100.50;10246092;28;20074;-51
2023/06/13 01:47:15;;;;;;;35.85;22.45;;;;;;;16.82;100.00;97108.59;10241397;28;20037;-51
2023/06/13 01:52:41;;;;;;;36.15;22.27;;;;;;;16.82;100.00;97115.63;10242367;28;20069;-49
2023/06/13 01:57:47;;;;;;;36.83;22.95;;;;;;;16.71;100.00;97100.22;10242590;28;20069;-49
2023/06/13 02:02:47;;;;;;;34.60;22.25;;;;;;;16.70;100.00;97109.00;10242533;28;20146;-51
2023/06/13 02:07:46;;;;;;;31.55;20.10;;;;;;;16.66;100.00;97107.41;10242696;28;20065;-50
2023/06/13 02:12:45;;;;;;;32.70;21.42;;;;;;;16.43;100.00;97067.16;10242835;28;20034;-51
2023/06/13 02:17:44;;;;;;;30.33;20.90;;;;;;;16.71;100.00;97113.34;10242206;28;20053;-49
2023/06/13 02:22:43;;;;;;;23.08;18.00;;;;;;;16.75;100.00;97112.31;10241970;28;20041;-49
2023/06/13 02:27:42;;;;;;;22.52;17.15;;;;;;;16.72;100.00;97122.88;10242026;28;20030;-51
2023/06/13 02:32:41;;;;;;;23.38;17.40;;;;;;;16.72;100.00;97120.28;10242108;28;20074;-49
2023/06/13 02:37:40;;;;;;;23.08;17.23;;;;;;;16.77;100.00;97122.72;10241626;28;20030;-49
2023/06/13 02:42:39;;;;;;;20.35;15.80;;;;;;;16.78;100.00;97130.53;10242651;28;20042;-51
2023/06/13 02:47:38;;;;;;;24.02;16.38;;;;;;;16.71;100.00;97123.81;10241274;28;20042;-50
2023/06/13 02:52:37;;;;;;;22.70;15.60;;;;;;;16.67;100.00;97130.06;10242496;28;20067;-51
2023/06/13 02:57:37;;;;;;;17.90;14.75;;;;;;;16.67;100.00;97138.78;10240125;28;20042;-49
2023/06/13 03:02:39;;;;;;;20.00;15.82;;;;;;;16.70;100.00;97145.69;10246034;28;20122;-51
2023/06/13 03:07:42;;;;;;;23.15;16.30;;;;;;;16.71;100.00;97147.41;10249923;28;20061;-49
2023/06/13 03:12:42;;;;;;;23.90;18.25;;;;;;;16.79;100.00;97150.56;10248603;28;20077;-50
2023/06/13 03:17:41;;;;;;;24.85;17.00;;;;;;;16.66;100.00;97123.13;10248838;28;20057;-50
2023/06/13 03:22:40;;;;;;;26.38;18.80;;;;;;;16.83;100.00;97143.50;10248801;28;20045;-52
2023/06/13 03:27:38;;;;;;;27.02;17.98;;;;;;;16.89;100.00;97144.16;10247866;28;20038;-51
2023/06/13 03:32:37;;;;;;;28.02;19.05;;;;;;;16.95;100.00;97150.94;10246939;28;20498;-51
2023/06/13 03:37:36;;;;;;;26.90;18.50;;;;;;;16.85;100.00;97147.78;10246928;28;20124;-50
2023/06/13 03:42:35;;;;;;;24.90;17.40;;;;;;;16.36;100.00;97059.59;10248164;28;20030;-51
2023/06/13 03:47:34;;;;;;;24.58;16.67;;;;;;;16.99;100.00;97160.41;10245016;28;20056;-49
2023/06/13 03:52:33;;;;;;;22.30;15.73;;;;;;;17.14;100.00;97151.09;10247923;28;20121;-48
2023/06/13 03:57:32;;;;;;;19.15;14.75;;;;;;;17.34;100.00;97147.75;10247080;28;20041;-51
2023/06/13 04:02:31;;;;;;;26.15;13.73;;;;;;;17.45;100.00;97155.19;10247508;28;20495;-49
2023/06/13 04:07:33;;;;;;;18.52;13.88;;;;;;;17.42;100.00;97158.78;10245859;28;20054;-50
2023/06/13 04:12:32;;;;;;;19.00;13.15;;;;;;;17.43;100.00;97172.78;10246397;28;20614;-50
2023/06/13 04:17:32;;;;;;;18.38;13.63;;;;;;;17.31;100.00;97169.69;10246505;28;20049;-49
2023/06/13 04:22:34;;;;;;;16.48;13.40;;;;;;;17.16;100.00;97180.75;10245768;28;20558;-48
2023/06/13 04:27:34;;;;;;;24.88;14.82;;;;;;;17.21;100.00;97184.06;10244270;28;20073;-48
2023/06/13 04:32:33;;;;;;;17.90;13.85;;;;;;;17.14;100.00;97182.56;10245231;28;20072;-48
2023/06/13 04:37:32;;;;;;;25.33;14.63;;;;;;;17.38;100.00;97190.44;10244845;28;20125;-49
2023/06/13 04:42:32;;;;;;;23.33;16.02;;;;;;;17.60;100.00;97191.34;10243655;28;20062;-48
2023/06/13 04:47:32;;;;;;;21.67;16.27;;;;;;;17.80;100.00;97193.25;10240461;28;20092;-49
2023/06/13 04:52:35;;;;;;;20.75;15.77;;;;;;;17.89;100.00;97190.25;10246723;28;20134;-48
2023/06/13 04:57:34;;;;;;;21.45;16.00;;;;;;;18.01;100.00;97188.94;10244424;28;20137;-51
2023/06/13 05:02:35;;;;;;;22.27;15.20;;;;;;;18.15;100.00;97183.97;10245260;28;20129;-51
2023/06/13 05:07:39;;;;;;;20.27;13.60;;;;;;;18.25;100.00;97189.69;10244534;28;20582;-50
2023/06/13 05:12:37;;;;;;;16.25;12.13;;;;;;;18.49;100.00;97182.56;10243721;28;20129;-51
2023/06/13 05:17:37;;;;;;;14.30;11.15;;;;;;;18.71;99.53;97185.16;10243048;28;20034;-49
2023/06/13 05:22:39;;;;;;;20.13;12.35;;;;;;;18.81;97.72;97180.38;10243114;28;20080;-52
2023/06/13 05:27:38;;;;;;;15.75;12.63;;;;;;;18.76;98.17;97180.59;10243646;28;20161;-51
2023/06/13 05:32:37;;;;;;;12.50;10.30;;;;;;;18.73;92.70;97183.31;10238778;28;20046;-50
2023/06/13 05:37:37;;;;;;;14.82;9.60;;;;;;;18.56;92.27;97191.06;10243525;28;20125;-52
2023/06/13 05:42:37;;;;;;;15.95;11.73;;;;;;;18.32;92.65;97191.16;10243607;28;20137;-52
2023/06/13 05:47:36;;;;;;;17.45;12.32;;;;;;;18.39;94.79;97204.91;10243417;28;20100;-51
2023/06/13 05:52:35;;;;;;;14.68;11.50;;;;;;;18.42;95.18;97191.63;10245484;28;20066;-51
2023/06/13 05:57:43;;;;;;;14.02;12.05;;;;;;;18.61;96.36;97197.81;10246330;28;20033;-50
2023/06/13 06:02:47;;;;;;;20.83;12.35;;;;;;;18.83;94.53;97189.06;10241277;28;20084;-51
2023/06/13 06:07:46;;;;;;;14.02;9.45;;;;;;;18.98;93.57;97187.53;10243655;28;20065;-52
2023/06/13 06:12:44;;;;;;;13.88;9.98;;;;;;;18.92;91.79;97196.53;10245639;28;20030;-52
2023/06/13 06:17:43;;;;;;;11.73;10.40;;;;;;;18.76;91.15;97193.72;10244642;28;20117;-49
2023/06/13 06:22:42;;;;;;;13.55;10.27;;;;;;;18.93;90.20;97186.88;10240830;28;20026;-52
2023/06/13 06:27:41;;;;;;;13.13;10.05;;;;;;;19.21;91.81;97186.53;10237630;28;20026;-52
2023/06/13 06:32:44;;;;;;;13.60;10.20;;;;;;;19.43;90.80;97179.34;10242235;28;20034;-49
2023/06/13 06:37:43;;;;;;;10.45;9.20;;;;;;;19.57;89.39;97175.25;10239425;28;20153;-50
2023/06/13 06:42:42;;;;;;;9.40;8.32;;;;;;;19.84;87.04;97173.13;10254715;28;20065;-49
2023/06/13 06:47:41;;;;;;;11.80;8.48;;;;;;;19.95;84.79;97175.22;10247898;28;20181;-51
2023/06/13 06:52:40;;;;;;;13.25;9.15;;;;;;;19.98;84.32;97167.19;10251925;28;20554;-52
2023/06/13 06:57:39;;;;;;;12.52;8.55;;;;;;;19.99;84.67;97169.75;10249851;28;20470;-51
2023/06/13 07:02:38;;;;;;;11.20;9.20;;;;;;;20.05;84.03;97163.34;10248947;28;20862;-51
2023/06/13 07:07:37;;;;;;;12.80;8.82;;;;;;;19.84;85.88;97171.34;10249093;28;20149;-52
2023/06/13 07:12:38;;;;;;;12.90;9.05;;;;;;;19.98;85.92;97164.56;10251841;28;20106;-51
2023/06/13 07:17:37;;;;;;;12.88;8.52;;;;;;;20.29;82.49;97166.53;10251781;28;20073;-50
2023/06/13 07:22:36;;;;;;;11.02;7.53;;;;;;;20.40;80.54;97163.38;10247236;28;20062;-50
2023/06/13 07:27:36;;;;;;;11.65;8.15;;;;;;;20.45;78.14;97171.94;10250145;28;20126;-51
2023/06/13 07:32:35;;;;;;;8.45;6.63;;;;;;;20.79;78.76;97170.22;10249239;28;20058;-52
2023/06/13 07:37:34;;;;;;;10.35;7.30;;;;;;;21.03;76.00;97163.69;10251258;28;20038;-50
2023/06/13 07:42:33;;;;;;;7.50;6.70;;;;;;;21.27;75.08;97161.56;10250441;28;20922;-51
2023/06/13 07:47:33;;;;;;;10.40;7.60;;;;;;;21.61;74.25;97158.84;10253884;28;20089;-52
2023/06/13 07:52:32;;;;;;;8.38;7.50;;;;;;;22.03;72.07;97165.38;10252419;28;20066;-50
2023/06/13 07:57:31;;;;;;;8.45;7.47;;;;;;;22.21;73.04;97161.66;10252011;28;20080;-50
2023/06/13 08:02:34;;;;;;;11.40;7.28;;;;;;;22.34;72.79;97157.38;10252135;28;20162;-51
2023/06/13 08:07:48;;;;;;;12.98;7.80;;;;;;;22.52;71.03;97157.25;10253875;28;20069;-51
2023/06/13 08:12:48;;;;;;;9.48;7.07;;;;;;;22.65;69.59;97131.78;10248593;28;20121;-52
2023/06/13 08:18:06;;;;;;;8.70;7.07;;;;;;;22.85;70.22;97105.94;10251993;28;20077;-50
2023/06/13 08:23:08;;;;;;;10.13;7.00;;;;;;;23.31;65.78;97138.38;10245159;28;20121;-49
2023/06/13 08:28:08;;;;;;;10.02;6.95;;;;;;;23.72;66.40;97134.06;10249090;28;20077;-52
2023/06/13 08:33:11;;;;;;;8.30;7.07;;;;;;;23.97;65.84;97123.59;10263707;28;20073;-49
2023/06/13 08:38:14;;;;;;;8.98;6.78;;;;;;;24.44;63.27;97114.31;10249193;28;20088;-50
2023/06/13 08:43:13;;;;;;;9.50;6.63;;;;;;;24.51;62.21;97105.97;10227227;28;20136;-49
2023/06/13 08:48:13;;;;;;;8.82;6.63;;;;;;;24.49;63.10;97103.41;10233927;28;20129;-49
2023/06/13 08:53:15;;;;;;;8.73;6.05;;;;;;;24.66;60.83;97124.34;10245886;28;20060;-50
2023/06/13 08:58:21;;;;;;;7.43;6.15;;;;;;;24.51;59.81;97105.97;10248099;28;20121;-49
2023/06/13 09:03:25;;;;;;;8.10;5.97;;;;;;;24.62;60.46;97103.44;10246754;28;20629;-48
2023/06/13 09:08:24;;;;;;;8.38;5.90;;;;;;;24.35;58.28;97108.78;10242838;28;20129;-50
2023/06/13 09:13:25;;;;;;;7.43;6.30;;;;;;;24.52;61.62;97083.78;10242860;28;20545;-50
2023/06/13 09:18:25;;;;;;;6.80;5.53;;;;;;;24.67;60.75;97093.34;10242047;28;20125;-48
2023/06/13 09:23:25;;;;;;;8.07;5.05;;;;;;;24.88;61.69;97094.53;10241322;28;20588;-48
2023/06/13 09:28:31;;;;;;;6.95;5.75;;;;;;;25.05;59.89;97105.78;10243997;28;20057;-50
2023/06/13 09:33:30;;;;;;;7.95;5.20;;;;;;;25.28;61.17;97099.69;10240743;28;20134;-49
2023/06/13 09:38:34;;;;;;;7.43;5.30;;;;;;;25.62;57.18;97094.69;10242000;28;20038;-53
2023/06/13 09:43:36;;;;;;;8.57;5.82;;;;;;;25.90;56.92;97100.59;10242110;28;20557;-49
2023/06/13 09:48:34;;;;;;;7.75;5.80;;;;;;;25.89;54.62;97096.25;10241737;28;20082;-52
2023/06/13 09:53:34;;;;;;;6.93;5.40;;;;;;;25.83;53.64;97094.03;10241705;28;20166;-52
2023/06/13 09:58:35;;;;;;;6.72;5.75;;;;;;;25.92;54.21;97069.44;10243256;28;20065;-51
2023/06/13 10:03:34;;;;;;;9.73;5.30;;;;;;;26.22;52.37;97087.63;10271669;28;20258;-49
2023/06/13 10:08:34;;;;;;;8.02;5.07;;;;;;;26.88;52.62;97081.75;10242443;28;20108;-52
2023/06/13 10:13:46;;;;;;;6.57;5.43;;;;;;;26.90;50.14;97078.00;10278335;28;20077;-52
2023/06/13 10:18:48;;;;;;;7.18;5.22;;;;;;;27.06;50.36;97076.81;10251824;28;20077;-48
2023/06/13 10:23:50;;;;;;;10.90;8.05;;;;;;;26.13;54.89;97056.34;10250040;28;20469;-50
2023/06/13 10:29:01;;;;;;;12.80;8.63;;;;;;;24.59;60.80;97090.34;10248450;28;20553;-53
2023/06/13 10:34:25;;;;;;;10.52;8.88;;;;;;;23.64;65.47;97077.16;10249363;28;20145;-52
2023/06/13 10:40:04;;;;;;;11.20;7.68;;;;;;;22.51;66.63;97097.38;10252268;28;20061;-52
2023/06/13 10:45:13;;;;;;;13.07;9.10;;;;;;;21.96;72.64;97123.41;10252372;28;20505;-50
2023/06/13 10:50:15;;;;;;;12.30;8.77;;;;;;;21.84;73.61;97139.09;10248740;28;20116;-52
2023/06/13 10:55:25;;;;;;;15.68;8.52;;;;;;;21.51;73.31;97156.72;10244878;28;20062;-53
2023/06/13 11:00:28;;;;;;;8.30;5.30;;;;;;;20.48;70.96;97182.31;10254583;28;20062;-52
2023/06/13 11:05:27;;;;;;;17.30;7.53;;;;;;;18.99;88.05;97254.97;10252737;28;20086;-48
2023/06/13 11:31:25;;;;;;;19.90;9.47;;;;;;;;;;10488388;27;20120;-55
2023/06/13 11:36:25;;;;;;;18.23;11.07;;;;;;;;;;10490898;28;20040;-55
2023/06/13 11:57:59;;;;;;;9.90;6.90;;;;;;;16.47;100.00;97191.88;10529085;27;20399;-55
2023/06/13 12:02:58;;;;;;;10.07;6.13;;;;;;;17.06;100.00;97243.16;10525948;28;20508;-56
2023/06/13 12:07:57;;;;;;;12.43;7.40;;;;;;;17.07;100.00;97192.41;10457292;28;20123;-56
2023/06/13 12:12:57;;;;;;;9.43;7.22;;;;;;;17.99;100.00;97235.38;10478857;28;20123;-56
2023/06/13 12:18:02;;;;;;;9.50;7.32;;;;;;;18.43;100.00;97230.09;10454211;28;20118;-56
2023/06/13 12:23:01;;;;;;;10.60;8.57;;;;;;;18.56;100.00;97201.56;10495535;28;20054;-57
2023/06/13 12:28:01;;;;;;;9.82;7.97;;;;;;;18.93;100.00;97227.16;10519101;28;20466;-56
2023/06/13 12:33:00;;;;;;;14.38;9.10;;;;;;;18.46;100.00;97171.34;10518150;28;20111;-56
2023/06/13 12:38:02;;;;;;;13.20;9.45;;;;;;;18.86;100.00;97244.13;10447607;28;20112;-56
2023/06/13 12:43:02;;;;;;;12.60;10.10;;;;;;;18.66;100.00;97241.44;10448863;28;20056;-56
2023/06/13 12:48:01;;;;;;;12.35;9.63;;;;;;;18.19;100.00;97238.06;10447885;28;20483;-56
2023/06/13 12:53:04;;;;;;;11.77;8.80;;;;;;;18.19;100.00;97240.69;10450332;28;20528;-56
2023/06/13 12:58:31;;;;;;;11.63;9.95;;;;;;;18.69;100.00;97241.34;10426033;28;20522;-56
2023/06/13 13:03:31;;;;;;;12.38;9.90;;;;;;;18.63;100.00;97245.06;10431443;28;20050;-55
2023/06/13 13:08:31;;;;;;;11.95;9.43;;;;;;;17.30;100.00;97083.22;10464575;28;20481;-55
2023/06/13 13:13:30;;;;;;;12.75;8.85;;;;;;;18.14;100.00;97253.16;10462093;28;20056;-55
2023/06/13 13:18:29;;;;;;;10.30;9.10;;;;;;;18.31;100.00;97259.50;10456747;28;20048;-55
2023/06/13 13:23:29;;;;;;;11.02;9.32;;;;;;;18.42;100.00;97238.91;10420412;28;20016;-55
2023/06/13 13:28:28;;;;;;;12.68;9.02;;;;;;;18.30;100.00;97218.41;10419565;28;20079;-55
2023/06/13 13:33:28;;;;;;;8.60;6.30;;;;;;;17.75;100.00;97222.25;10419804;28;20032;-55
2023/06/13 13:38:27;;;;;;;11.15;8.95;;;;;;;17.54;100.00;97275.53;10419997;28;20066;-55
2023/06/13 13:43:26;;;;;;;10.93;9.23;;;;;;;17.48;100.00;97254.78;10450203;28;20033;-55
2023/06/13 13:48:24;;;;;;;11.50;9.90;;;;;;;17.50;100.00;97258.22;10444232;28;20052;-55
2023/06/13 13:53:25;;;;;;;10.13;8.55;;;;;;;17.31;100.00;97216.91;10419408;28;20033;-55
2023/06/13 13:58:25;;;;;;;17.50;13.27;;;;;;;16.98;100.00;97267.91;10418814;28;20056;-55
2023/06/13 14:03:24;;;;;;;20.45;14.90;;;;;;;16.84;100.00;97261.38;10418966;28;20505;-55
2023/06/13 14:08:23;;;;;;;23.27;15.23;;;;;;;16.91;100.00;97260.28;10417369;28;20451;-55
2023/06/13 14:13:22;;;;;;;18.88;13.23;;;;;;;16.75;100.00;97271.28;10450804;28;20459;-55
2023/06/13 14:18:21;;;;;;;18.73;14.23;;;;;;;16.85;100.00;97273.56;10491337;28;20026;-55
2023/06/13 14:23:20;;;;;;;20.08;14.27;;;;;;;16.83;100.00;97266.66;10437327;28;20051;-55
2023/06/13 14:28:19;;;;;;;18.95;14.10;;;;;;;16.77;100.00;97262.47;10417195;28;20475;-55
2023/06/13 14:33:18;;;;;;;19.35;15.43;;;;;;;16.83;100.00;97267.53;10417549;28;20024;-55
2023/06/13 14:38:17;;;;;;;26.83;18.98;;;;;;;16.59;100.00;97268.31;10467944;28;20061;-55
2023/06/13 14:43:16;;;;;;;23.95;18.15;;;;;;;16.36;100.00;97214.94;10464403;28;20023;-55
2023/06/13 14:48:15;;;;;;;22.80;15.10;;;;;;;16.39;100.00;97232.28;10433371;28;20435;-55
2023/06/13 14:53:15;;;;;;;26.42;19.02;;;;;;;16.40;100.00;97274.16;10412862;28;20487;-55
2023/06/13 14:58:13;;;;;;;26.42;18.73;;;;;;;16.35;100.00;97280.44;10407255;28;20553;-55
2023/06/13 15:03:12;;;;;;;24.50;18.27;;;;;;;16.36;100.00;97279.53;10406323;28;20032;-55
2023/06/13 15:08:11;;;;;;;27.77;17.52;;;;;;;15.76;100.00;97198.44;10406239;28;20040;-54
2023/06/13 15:13:11;;;;;;;28.77;18.67;;;;;;;15.89;100.00;97225.16;10406016;28;20478;-54
2023/06/13 15:18:10;;;;;;;20.33;15.73;;;;;;;16.34;100.00;97276.09;10408646;28;20131;-54
2023/06/13 15:23:08;;;;;;;20.90;15.70;;;;;;;16.32;100.00;97267.44;10406701;28;20023;-54
2023/06/13 15:28:07;;;;;;;19.70;13.73;;;;;;;16.33;100.00;97275.25;10407455;28;20040;-53
2023/06/13 15:33:09;;;;;;;16.40;12.18;;;;;;;16.36;100.00;97277.78;10407637;28;20155;-54
2023/06/13 15:38:09;;;;;;;16.90;12.75;;;;;;;16.46;100.00;97276.56;10407585;28;20826;-54
2023/06/13 15:43:08;;;;;;;17.00;11.93;;;;;;;16.63;100.00;97281.28;10406546;28;20119;-54
2023/06/13 15:48:07;;;;;;;14.45;10.93;;;;;;;16.36;100.00;97262.06;10436840;28;20101;-54
2023/06/13 15:53:06;;;;;;;16.52;12.65;;;;;;;16.09;100.00;97221.91;10445037;28;20139;-55
2023/06/13 15:58:06;;;;;;;14.27;10.70;;;;;;;16.19;100.00;97246.91;10448678;28;20056;-55
2023/06/13 16:03:08;;;;;;;9.27;7.10;;;;;;;16.01;100.00;97222.16;10446444;28;20070;-53
2023/06/13 16:08:07;;;;;;;9.32;7.50;;;;;;;16.00;100.00;97264.94;10446783;28;20489;-53
2023/06/13 16:13:06;;;;;;;10.90;6.85;;;;;;;16.17;100.00;97276.66;10443133;28;20071;-54
2023/06/13 16:18:05;;;;;;;8.32;6.22;;;;;;;16.20;100.00;97277.38;10441769;28;20413;-53
2023/06/13 16:23:04;;;;;;;11.40;8.10;;;;;;;15.92;100.00;97238.13;10444402;28;20525;-53
2023/06/13 16:28:03;;;;;;;13.55;8.68;;;;;;;16.15;100.00;97276.69;10444254;28;20119;-54
2023/06/13 16:33:02;;;;;;;10.68;7.60;;;;;;;16.08;100.00;97267.31;10449366;28;20134;-54
2023/06/13 16:38:02;;;;;;;10.73;8.48;;;;;;;16.33;100.00;97277.88;10451910;28;20024;-54
2023/06/13 16:43:01;;;;;;;10.35;7.30;;;;;;;16.35;100.00;97281.31;10427550;28;21195;-53
2023/06/13 16:48:01;;;;;;;9.85;6.82;;;;;;;16.37;100.00;97276.88;10439736;28;20085;-53
2023/06/13 16:53:00;;;;;;;12.82;7.90;;;;;;;16.42;100.00;97272.34;10450464;28;20071;-54
2023/06/13 16:57:59;;;;;;;12.90;8.45;;;;;;;16.42;100.00;97282.81;10450713;28;20114;-54
2023/06/13 17:02:58;;;;;;;11.00;7.80;;;;;;;16.28;100.00;97251.84;10450849;28;20103;-53
2023/06/13 17:07:57;;;;;;;11.75;7.80;;;;;;;16.52;100.00;97283.38;10449616;28;20487;-53
2023/06/13 17:12:56;;;;;;;15.45;9.32;;;;;;;16.43;100.00;97263.56;10406758;28;20431;-54
2023/06/13 17:17:55;;;;;;;16.92;11.65;;;;;;;16.66;100.00;97283.78;10408368;28;20063;-54
2023/06/13 17:22:54;;;;;;;12.25;8.00;;;;;;;16.64;100.00;97292.59;10408257;28;20149;-54
2023/06/13 17:27:54;;;;;;;10.88;7.68;;;;;;;15.94;100.00;97199.69;10407741;28;20132;-54
2023/06/13 17:32:53;;;;;;;11.52;7.28;;;;;;;16.43;100.00;97292.38;10421751;28;20159;-54
2023/06/13 17:37:52;;;;;;;12.02;6.97;;;;;;;16.16;100.00;97209.47;10448224;28;20128;-54
2023/06/13 17:42:51;;;;;;;10.32;7.07;;;;;;;16.58;100.00;97267.44;10422066;28;20028;-54
2023/06/13 17:47:51;;;;;;;9.82;6.60;;;;;;;16.63;100.00;97277.78;10434514;28;20048;-54
2023/06/13 17:52:50;;;;;;;11.63;7.15;;;;;;;16.57;100.00;97285.84;10446683;28;20482;-54
2023/06/13 17:57:49;;;;;;;12.77;8.63;;;;;;;16.44;100.00;97280.13;10447680;28;20115;-54
2023/06/13 18:02:48;;;;;;;13.05;7.78;;;;;;;16.59;100.00;97307.63;10448193;28;20149;-54
2023/06/13 18:07:47;;;;;;;12.02;8.75;;;;;;;16.41;100.00;97260.13;10448279;28;20476;-54
2023/06/13 18:12:46;;;;;;;20.05;10.02;;;;;;;16.63;100.00;97309.22;10447337;28;20032;-54
2023/06/13 18:17:46;;;;;;;14.38;10.18;;;;;;;16.48;100.00;97284.38;10446553;28;20020;-54
2023/06/13 18:22:45;;;;;;;13.63;8.90;;;;;;;16.62;100.00;97316.22;10416554;28;20119;-54
2023/06/13 18:27:47;;;;;;;15.48;10.55;;;;;;;16.52;100.00;97317.44;10404919;28;20183;-54
2023/06/13 18:32:45;;;;;;;16.27;11.00;;;;;;;16.49;100.00;97305.28;10405456;28;20124;-54
2023/06/13 18:37:46;;;;;;;15.30;10.27;;;;;;;16.60;100.00;97332.91;10405750;28;20454;-54
2023/06/13 18:42:45;;;;;;;15.05;10.50;;;;;;;16.60;100.00;97354.69;10405101;28;20067;-54
2023/06/13 18:47:44;;;;;;;13.23;10.02;;;;;;;16.20;100.00;97300.09;10432972;28;20139;-55
2023/06/13 18:52:46;;;;;;;14.65;10.32;;;;;;;16.67;100.00;97373.72;10444421;28;20047;-54
2023/06/13 18:57:45;;;;;;;16.50;11.65;;;;;;;16.71;100.00;97380.56;10445170;28;20131;-54
2023/06/13 19:02:47;;;;;;;15.68;11.02;;;;;;;16.71;100.00;97391.06;10435488;28;20028;-55
2023/06/13 19:07:46;;;;;;;14.07;10.63;;;;;;;16.71;100.00;97409.41;10445271;28;20074;-55
2023/06/13 19:12:45;;;;;;;15.35;11.98;;;;;;;15.84;100.00;97253.22;10425684;28;20079;-54
2023/06/13 19:17:45;;;;;;;18.25;12.65;;;;;;;16.72;100.00;97408.47;10411802;28;20127;-55
2023/06/13 19:22:44;;;;;;;18.75;13.55;;;;;;;16.75;100.00;97405.78;10407649;28;20135;-54
2023/06/13 19:27:43;;;;;;;18.40;12.52;;;;;;;16.28;100.00;97350.47;10401619;28;20115;-54
2023/06/13 19:32:42;;;;;;;19.83;13.32;;;;;;;16.62;100.00;97405.28;10403828;28;20398;-54
2023/06/13 19:37:41;;;;;;;19.02;14.13;;;;;;;16.70;100.00;97407.69;10404391;28;20101;-54
2023/06/13 19:42:40;;;;;;;17.92;11.80;;;;;;;16.68;100.00;97414.75;10402636;28;20134;-55
2023/06/13 19:47:39;;;;;;;15.75;11.30;;;;;;;16.50;100.00;97417.00;10408179;28;20749;-54
2023/06/13 19:52:38;;;;;;;16.13;10.57;;;;;;;16.15;100.00;97388.41;10438881;28;20123;-54
2023/06/13 19:57:38;;;;;;;14.68;10.75;;;;;;;16.17;100.00;97423.25;10436623;28;20126;-55
2023/06/13 20:02:37;;;;;;;14.73;10.38;;;;;;;16.05;100.00;97417.44;10442477;28;20074;-54
2023/06/13 20:07:38;;;;;;;15.73;11.57;;;;;;;15.88;100.00;97402.22;10449346;28;20348;-54
2023/06/13 20:12:37;;;;;;;17.83;11.07;;;;;;;15.70;100.00;97417.53;10452257;28;20520;-54
2023/06/13 20:17:37;;;;;;;17.92;11.60;;;;;;;15.61;100.00;97419.50;10412198;28;20028;-55
2023/06/13 20:22:41;;;;;;;18.15;13.48;;;;;;;14.94;100.00;97265.28;10411967;28;20558;-55
2023/06/13 20:27:40;;;;;;;18.52;11.57;;;;;;;15.84;100.00;97399.75;10409932;28;20162;-55
2023/06/13 20:32:39;;;;;;;14.05;10.20;;;;;;;16.06;100.00;97416.53;10410523;28;20111;-55
2023/06/13 20:37:38;;;;;;;13.05;8.43;;;;;;;16.08;100.00;97414.72;10410183;28;20494;-55
2023/06/13 20:42:40;;;;;;;13.93;10.00;;;;;;;15.98;100.00;97412.44;10409629;28;20048;-55
2023/06/13 20:47:39;;;;;;;11.48;8.60;;;;;;;16.05;100.00;97412.22;10435626;28;20111;-55
2023/06/13 20:52:38;;;;;;;12.63;8.23;;;;;;;15.88;100.00;97407.47;10451840;28;20032;-55
2023/06/13 20:57:37;;;;;;;11.93;7.80;;;;;;;15.45;100.00;97373.72;10416005;28;20064;-55
2023/06/13 21:02:36;;;;;;;15.32;8.35;;;;;;;15.29;100.00;97393.31;10409031;28;20028;-54
2023/06/13 21:07:35;;;;;;;10.85;7.22;;;;;;;15.35;100.00;97411.47;10408914;28;20028;-54
2023/06/13 21:12:36;;;;;;;14.10;7.60;;;;;;;15.36;100.00;97410.56;10409016;28;20576;-54
2023/06/13 21:17:35;;;;;;;11.07;6.90;;;;;;;15.36;100.00;97389.66;10448782;28;20521;-54
2023/06/13 21:22:35;;;;;;;12.07;7.18;;;;;;;15.63;100.00;97409.84;10422791;28;20119;-54
2023/06/13 21:27:36;;;;;;;9.05;5.95;;;;;;;15.77;100.00;97412.09;10422733;28;20108;-54
2023/06/13 21:32:35;;;;;;;17.17;8.65;;;;;;;15.86;100.00;97408.41;10407866;28;20124;-54
2023/06/13 21:37:37;;;;;;;18.63;9.18;;;;;;;16.03;100.00;97405.31;10408291;28;20176;-54
2023/06/13 21:42:36;;;;;;;14.90;9.10;;;;;;;16.00;100.00;97363.53;10422643;28;20056;-54
2023/06/13 21:47:36;;;;;;;21.73;10.60;;;;;;;16.35;100.00;97408.75;10432760;28;20118;-54
2023/06/13 21:52:36;;;;;;;16.00;10.48;;;;;;;16.42;100.00;97408.53;10421626;28;20119;-54
2023/06/13 21:57:36;;;;;;;17.67;10.68;;;;;;;16.50;100.00;97409.13;10407691;28;20120;-54
2023/06/13 22:02:35;;;;;;;20.80;10.30;;;;;;;16.57;100.00;97401.09;10407510;28;20125;-54
2023/06/13 22:07:34;;;;;;;20.00;10.73;;;;;;;16.64;100.00;97402.63;10406441;28;20119;-54
2023/06/13 22:12:34;;;;;;;17.05;10.60;;;;;;;16.62;100.00;97393.97;10407870;28;20074;-55
2023/06/13 22:17:33;;;;;;;19.55;11.43;;;;;;;16.30;100.00;97346.03;10406271;28;20204;-54
2023/06/13 22:22:34;;;;;;;18.15;11.20;;;;;;;16.65;100.00;97401.72;10405499;28;20044;-54
2023/06/13 22:27:32;;;;;;;17.00;11.45;;;;;;;16.59;100.00;97410.63;10405973;28;20071;-55
2023/06/13 22:32:32;;;;;;;16.60;11.95;;;;;;;16.55;100.00;97402.91;10409436;28;20040;-55
2023/06/13 22:37:31;;;;;;;15.52;10.15;;;;;;;16.58;100.00;97403.66;10416971;28;20048;-55
2023/06/13 22:42:30;;;;;;;13.88;9.45;;;;;;;16.61;100.00;97397.50;10450006;28;20143;-55
2023/06/13 22:47:29;;;;;;;20.73;10.85;;;;;;;16.48;100.00;97402.25;10449873;28;20103;-55
2023/06/13 22:52:28;;;;;;;16.00;10.77;;;;;;;16.28;100.00;97405.47;10442673;28;20369;-55
2023/06/13 22:57:30;;;;;;;15.75;10.27;;;;;;;16.28;100.00;97384.53;10419306;28;20087;-55
2023/06/13 23:02:29;;;;;;;16.33;11.10;;;;;;;16.40;100.00;97380.69;10409109;28;21111;-54
2023/06/13 23:07:28;;;;;;;17.70;10.63;;;;;;;16.43;100.00;97388.44;10408605;28;20055;-55
2023/06/13 23:12:27;;;;;;;16.30;9.57;;;;;;;16.28;100.00;97374.03;10407093;28;20060;-55
2023/06/13 23:17:27;;;;;;;15.43;9.20;;;;;;;16.43;100.00;97385.81;10408535;28;20020;-55
2023/06/13 23:22:27;;;;;;;14.13;8.57;;;;;;;16.45;100.00;97400.56;10413039;28;20063;-55